Budapest Bridge — VRIZ5 — position and weather

sailwx.info

Track history (hours):
 
Tides and Currents Weather Stations Pressure Air Temp Water Temp Dewpoint Dewpoint Depression Visibility Wind Speed Wind Dir Waves Ship Positions

Budapest Bridge

Last reported at 2017-Jan-18 12:15 UTC. Time now 2017-Jan-18 14:06 UTC.
Position N 01°16' E 103°50'.

Length 268 m; draft 9.4 m.

Type: Cargo ship. MMSI: 477434200.

Date/timePositionNaut miles runAvg speedWind from/ knotsBaromVisibWave heightAir tempDewpointWater temp
2017-Jan-18 12:15N 01°16' E 103°50'0 0.0
2017-Jan-18 11:30N 01°16' E 103°50'0 0.0
2017-Jan-18 10:24N 01°16' E 103°50'0 0.0
2017-Jan-18 09:30N 01°16' E 103°50'0 0.0
2017-Jan-18 07:30N 01°16' E 103°50'0 0.0
2017-Jan-18 06:30N 01°16' E 103°50'0 0.0
2017-Jan-18 05:15N 01°16' E 103°50'0 0.0
2017-Jan-18 04:33N 01°16' E 103°50'4 4.0
2017-Jan-18 03:33N 01°13' E 103°53'5 5.0
2017-Jan-18 02:33N 01°15' E 103°58'  
2017-Jan-11 20:29N 33°47' E 134°53'1617.1
2017-Jan-11 19:33N 34°03' E 134°57'1615.8
2017-Jan-11 18:33N 34°19' E 134°59'2020.4
2017-Jan-11 17:33N 34°35' E 135°14'6 4.4
2017-Jan-11 16:08N 34°41' E 135°16'0 0.0
2017-Jan-11 15:32N 34°41' E 135°16'0 0.0
2017-Jan-11 14:32N 34°41' E 135°16'0 0.0
2017-Jan-11 13:26N 34°41' E 135°16'0 0.0
2017-Jan-11 12:32N 34°41' E 135°16'0 0.0
2017-Jan-11 11:32N 34°41' E 135°16'0 0.0
2017-Jan-11 10:32N 34°41' E 135°16'0 0.0
2017-Jan-11 09:32N 34°41' E 135°16'0 0.0
2017-Jan-11 08:32N 34°41' E 135°16'0 0.0
2017-Jan-11 07:26N 34°41' E 135°16'0 0.0
2017-Jan-11 06:32N 34°41' E 135°16'2 2.4
2017-Jan-11 05:33N 34°38' E 135°16'1211.5
2017-Jan-11 04:33N 34°28' E 135°11'1716.7
2017-Jan-11 03:33N 34°14' E 134°59'1111.1
2017-Jan-11 02:33N 34°03' E 134°58'238 5.8
2017-Jan-09 09:33N 34°58' E 139°39'1515.0
2017-Jan-09 08:33N 35°12' E 139°46'1211.7
2017-Jan-09 07:33N 35°24' E 139°42'4 4.1
2017-Jan-09 06:33N 35°28' E 139°42'0 0.0
2017-Jan-09 05:33N 35°28' E 139°42'0 0.0
2017-Jan-09 04:33N 35°28' E 139°42'0 0.0
2017-Jan-09 03:33N 35°28' E 139°42'0 0.0
2017-Jan-09 02:33N 35°28' E 139°42'0 0.0
2017-Jan-09 01:33N 35°28' E 139°42'0 0.0
2017-Jan-09 00:33N 35°28' E 139°42'0 0.0
2017-Jan-08 23:33N 35°28' E 139°42'0 0.0
2017-Jan-08 22:34N 35°28' E 139°42'0 0.0
2017-Jan-08 21:33N 35°28' E 139°42'0 0.0
2017-Jan-08 20:33N 35°28' E 139°42'0 0.0
2017-Jan-08 19:33N 35°28' E 139°42'0 0.0
2017-Jan-08 18:33N 35°28' E 139°42'0 0.0
2017-Jan-08 17:33N 35°28' E 139°42'0 0.0
2017-Jan-08 16:33N 35°28' E 139°42'0 0.0
2017-Jan-08 15:33N 35°28' E 139°42'0 0.0
2017-Jan-08 14:33N 35°28' E 139°42'0 0.0
2017-Jan-08 13:33N 35°28' E 139°42'0 0.0
2017-Jan-08 12:34N 35°28' E 139°42'  
Track history (hours):
 
Tides and Currents Weather Stations Pressure Air Temp Water Temp Dewpoint Dewpoint Depression Visibility Wind Speed Wind Dir Waves Ship Positions

Budapest Bridge

Last reported at 2017-Jan-18 12:15 UTC. Time now 2017-Jan-18 14:06 UTC.
Position N 01°16' E 103°50'.

Length 268 m; draft 9.4 m.

Type: Cargo ship. MMSI: 477434200.

Date/timePositionNaut miles runAvg speedWind from/ knotsBaromVisibWave heightAir tempDewpointWater temp
2017-Jan-18 12:15N 01°16' E 103°50'0 0.0
2017-Jan-18 11:30N 01°16' E 103°50'0 0.0
2017-Jan-18 10:24N 01°16' E 103°50'0 0.0
2017-Jan-18 09:30N 01°16' E 103°50'0 0.0
2017-Jan-18 07:30N 01°16' E 103°50'0 0.0
2017-Jan-18 06:30N 01°16' E 103°50'0 0.0
2017-Jan-18 05:15N 01°16' E 103°50'0 0.0
2017-Jan-18 04:33N 01°16' E 103°50'4 4.0
2017-Jan-18 03:33N 01°13' E 103°53'5 5.0
2017-Jan-18 02:33N 01°15' E 103°58'  
2017-Jan-11 20:29N 33°47' E 134°53'1617.1
2017-Jan-11 19:33N 34°03' E 134°57'1615.8
2017-Jan-11 18:33N 34°19' E 134°59'2020.4
2017-Jan-11 17:33N 34°35' E 135°14'6 4.4
2017-Jan-11 16:08N 34°41' E 135°16'0 0.0
2017-Jan-11 15:32N 34°41' E 135°16'0 0.0
2017-Jan-11 14:32N 34°41' E 135°16'0 0.0
2017-Jan-11 13:26N 34°41' E 135°16'0 0.0
2017-Jan-11 12:32N 34°41' E 135°16'0 0.0
2017-Jan-11 11:32N 34°41' E 135°16'0 0.0
2017-Jan-11 10:32N 34°41' E 135°16'0 0.0
2017-Jan-11 09:32N 34°41' E 135°16'0 0.0
2017-Jan-11 08:32N 34°41' E 135°16'0 0.0
2017-Jan-11 07:26N 34°41' E 135°16'0 0.0
2017-Jan-11 06:32N 34°41' E 135°16'2 2.4
2017-Jan-11 05:33N 34°38' E 135°16'1211.5
2017-Jan-11 04:33N 34°28' E 135°11'1716.7
2017-Jan-11 03:33N 34°14' E 134°59'1111.1
2017-Jan-11 02:33N 34°03' E 134°58'238 5.8
2017-Jan-09 09:33N 34°58' E 139°39'1515.0
2017-Jan-09 08:33N 35°12' E 139°46'1211.7
2017-Jan-09 07:33N 35°24' E 139°42'4 4.1
2017-Jan-09 06:33N 35°28' E 139°42'0 0.0
2017-Jan-09 05:33N 35°28' E 139°42'0 0.0
2017-Jan-09 04:33N 35°28' E 139°42'0 0.0
2017-Jan-09 03:33N 35°28' E 139°42'0 0.0
2017-Jan-09 02:33N 35°28' E 139°42'0 0.0
2017-Jan-09 01:33N 35°28' E 139°42'0 0.0
2017-Jan-09 00:33N 35°28' E 139°42'0 0.0
2017-Jan-08 23:33N 35°28' E 139°42'0 0.0
2017-Jan-08 22:34N 35°28' E 139°42'0 0.0
2017-Jan-08 21:33N 35°28' E 139°42'0 0.0
2017-Jan-08 20:33N 35°28' E 139°42'0 0.0
2017-Jan-08 19:33N 35°28' E 139°42'0 0.0
2017-Jan-08 18:33N 35°28' E 139°42'0 0.0
2017-Jan-08 17:33N 35°28' E 139°42'0 0.0
2017-Jan-08 16:33N 35°28' E 139°42'0 0.0
2017-Jan-08 15:33N 35°28' E 139°42'0 0.0
2017-Jan-08 14:33N 35°28' E 139°42'0 0.0
2017-Jan-08 13:33N 35°28' E 139°42'0 0.0
2017-Jan-08 12:34N 35°28' E 139°42'  

Dump ship's entire track history